Flight Track Log - Related Links

Times and Time Zones

All times are in EDT time to prevent confusion due to time zone crossing. See the A6-EDY flight status page for this flight to view local times or setup timezone preferences in your user account.

Time Position Orientation Groundspeed Altitude Reporting Facility
EDT Latitude Longitude Course Direction KTS MPH feet Rate Location/Type
Mon 02:32:25 AM 25.2540 55.3690 360° North 126 145 200  Level FlightAware ADS-B
Mon 02:33:00 AM 25.2690 55.3440 304° West 176 203 500 960 Climbing FlightAware ADS-B
Mon 02:33:40 AM 25.2860 55.3120 300° West 183 211 1,400 1,108 Climbing FlightAware ADS-B
Mon 02:34:05 AM 25.2980 55.2900 301° West 209 241 1,700 900 Climbing FlightAware ADS-B
Mon 02:34:20 AM 25.3100 55.2790 320° Northwest 226 260 2,000 1,050 Climbing FlightAware ADS-B
Mon 02:34:45 AM 25.3390 55.2740 351° North 253 291 2,400 1,440 Climbing FlightAware ADS-B
Mon 02:35:10 AM 25.3650 55.2880 26° Northeast 269 310 3,200 1,964 Climbing FlightAware ADS-B
Mon 02:35:40 AM 25.3970 55.3110 33° Northeast 277 319 4,200 1,846 Climbing FlightAware ADS-B
Mon 02:36:15 AM 25.4320 55.3360 33° Northeast 290 334 5,200 1,300 Climbing FlightAware ADS-B
Mon 02:36:40 AM 25.4600 55.3570 34° Northeast 315 362 5,500 360 Climbing FlightAware ADS-B
Mon 02:37:05 AM 25.4910 55.3790 33° Northeast 315 362 5,500 199 Level FlightAware ADS-B
Mon 02:39:00 AM 25.6924 55.2435 329° Northwest  Level Estimated
Mon 02:40:00 AM 25.7974 55.1726 329° Northwest  Level Estimated
Mon 02:41:00 AM 25.9024 55.1016 329° Northwest  Level Estimated
Mon 02:42:00 AM 26.0074 55.0304 329° Northwest  Level Estimated
Mon 02:43:00 AM 26.1123 54.9591 329° Northwest  Level Estimated
Mon 02:44:00 AM 26.2172 54.8877 329° Northwest  Level Estimated
Mon 02:45:00 AM 26.3221 54.8162 329° Northwest  Level Estimated
Mon 02:46:00 AM 26.4269 54.7446 329° Northwest  Level Estimated
Mon 02:47:00 AM 26.5317 54.6728 328° Northwest  Level Estimated
Mon 02:48:00 AM 26.6364 54.6008 328° Northwest  Level Estimated
Mon 02:49:00 AM 26.7411 54.5288 328° Northwest  Level Estimated
Mon 02:50:00 AM 26.8458 54.4566 328° Northwest  Level Estimated
Mon 02:51:00 AM 26.9505 54.3843 328° Northwest  Level Estimated
Mon 02:52:00 AM 27.0550 54.3119 328° Northwest  Level Estimated
Mon 02:53:00 AM 27.1596 54.2393 328° Northwest  Level Estimated
Mon 02:54:00 AM 27.2641 54.1665 328° Northwest  Level Estimated
Mon 02:55:00 AM 27.3686 54.0937 328° Northwest  Level Estimated
Mon 02:56:00 AM 27.4731 54.0207 328° Northwest  Level Estimated
Mon 02:57:00 AM 27.5775 53.9475 328° Northwest  Level Estimated
Mon 02:58:00 AM 27.6819 53.8743 328° Northwest  Level Estimated
Mon 02:59:00 AM 27.7862 53.8009 328° Northwest  Level Estimated
Mon 03:00:00 AM 27.8905 53.7273 328° Northwest  Level Estimated
Mon 03:01:00 AM 27.9948 53.6536 328° Northwest  Level Estimated
Mon 03:02:00 AM 28.0990 53.5798 328° Northwest  Level Estimated
Mon 03:03:00 AM 28.2032 53.5058 328° Northwest  Level Estimated
Mon 03:04:00 AM 28.3073 53.4316 328° Northwest  Level Estimated
Mon 03:05:00 AM 28.4114 53.3574 328° Northwest  Level Estimated
Mon 03:06:00 AM 28.5155 53.2830 328° Northwest  Level Estimated
Mon 03:07:00 AM 28.6195 53.2084 328° Northwest  Level Estimated
Mon 03:08:00 AM 28.7235 53.1337 328° Northwest  Level Estimated
Mon 03:09:00 AM 28.8274 53.0588 328° Northwest  Level Estimated
Mon 03:10:00 AM 28.9313 52.9838 328° Northwest  Level Estimated
Mon 03:11:00 AM 29.0352 52.9086 328° Northwest  Level Estimated
Mon 03:12:00 AM 29.1390 52.8333 328° Northwest  Level Estimated
Mon 03:13:00 AM 29.2427 52.7579 328° Northwest  Level Estimated
Mon 03:14:00 AM 29.3465 52.6823 328° Northwest  Level Estimated
Mon 03:15:00 AM 29.4501 52.6065 328° Northwest  Level Estimated
Mon 03:16:00 AM 29.5538 52.5305 327° Northwest  Level Estimated
Mon 03:17:00 AM 29.6574 52.4545 327° Northwest  Level Estimated
Mon 03:18:00 AM 29.7609 52.3782 327° Northwest  Level Estimated
Mon 03:19:00 AM 29.8645 52.3018 327° Northwest  Level Estimated
Mon 03:20:00 AM 29.9679 52.2253 327° Northwest  Level Estimated
Mon 03:21:00 AM 30.0713 52.1485 327° Northwest  Level Estimated
Mon 03:22:00 AM 30.1747 52.0717 327° Northwest  Level Estimated
Mon 03:23:00 AM 30.2780 51.9946 327° Northwest  Level Estimated
Mon 03:24:00 AM 30.3813 51.9174 327° Northwest  Level Estimated
Mon 03:25:00 AM 30.4846 51.8400 327° Northwest  Level Estimated
Mon 03:26:00 AM 30.5878 51.7625 327° Northwest  Level Estimated
Mon 03:27:00 AM 30.6909 51.6848 327° Northwest  Level Estimated
Mon 03:28:00 AM 30.7940 51.6070 327° Northwest  Level Estimated
Mon 03:29:00 AM 30.8971 51.5289 327° Northwest  Level Estimated
Mon 03:30:00 AM 31.0001 51.4507 327° Northwest  Level Estimated
Mon 03:31:00 AM 31.1031 51.3724 327° Northwest  Level Estimated
Mon 03:32:00 AM 31.2060 51.2938 327° Northwest  Level Estimated
Mon 03:33:00 AM 31.3088 51.2151 327° Northwest  Level Estimated
Mon 03:34:00 AM 31.4117 51.1362 327° Northwest  Level Estimated
Mon 03:35:00 AM 31.5144 51.0572 327° Northwest  Level Estimated
Mon 03:36:00 AM 31.6172 50.9780 327° Northwest  Level Estimated
Mon 03:37:00 AM 31.7198 50.8986 327° Northwest  Level Estimated
Mon 03:38:00 AM 31.8225 50.8190 327° Northwest  Level Estimated
Mon 03:39:00 AM 31.9250 50.7392 327° Northwest  Level Estimated
Mon 03:40:00 AM 32.0275 50.6593 327° Northwest  Level Estimated
Mon 03:41:00 AM 32.1300 50.5792 327° Northwest  Level Estimated
Mon 03:42:00 AM 32.2324 50.4989 326° Northwest  Level Estimated
Mon 03:43:00 AM 32.3348 50.4184 326° Northwest  Level Estimated
Mon 03:44:00 AM 32.4371 50.3378 326° Northwest  Level Estimated
Mon 03:45:00 AM 32.5394 50.2569 326° Northwest  Level Estimated
Mon 03:46:00 AM 32.6416 50.1759 326° Northwest  Level Estimated
Mon 03:47:00 AM 32.7438 50.0947 326° Northwest  Level Estimated
Mon 03:48:00 AM 32.8459 50.0133 326° Northwest  Level Estimated
Mon 03:49:00 AM 32.9479 49.9317 326° Northwest  Level Estimated
Mon 03:50:00 AM 33.0500 49.8500 326° Northwest  Level Estimated
Mon 03:51:00 AM 33.1519 49.7680 326° Northwest  Level Estimated
Mon 03:52:00 AM 33.2538 49.6859 326° Northwest  Level Estimated
Mon 03:53:00 AM 33.3557 49.6035 326° Northwest  Level Estimated
Mon 03:54:00 AM 33.4575 49.5210 326° Northwest  Level Estimated
Mon 03:55:00 AM 33.5592 49.4383 326° Northwest  Level Estimated
Mon 03:56:00 AM 33.6609 49.3553 326° Northwest  Level Estimated
Mon 03:57:00 AM 33.7625 49.2722 326° Northwest  Level Estimated
Mon 03:58:00 AM 33.8641 49.1889 326° Northwest  Level Estimated
Mon 03:59:00 AM 33.9656 49.1054 326° Northwest  Level Estimated
Mon 04:00:00 AM 34.0670 49.0217 326° Northwest  Level Estimated
Mon 04:01:00 AM 34.1684 48.9377 326° Northwest  Level Estimated
Mon 04:02:00 AM 34.2698 48.8536 326° Northwest  Level Estimated
Mon 04:03:00 AM 34.3711 48.7693 326° Northwest  Level Estimated
Mon 04:04:00 AM 34.4723 48.6848 325° Northwest  Level Estimated
Mon 04:05:00 AM 34.5735 48.6001 325° Northwest  Level Estimated
Mon 04:06:00 AM 34.6746 48.5151 325° Northwest  Level Estimated
Mon 04:07:00 AM 34.7756 48.4300 325° Northwest  Level Estimated
Mon 04:08:00 AM 34.8766 48.3446 325° Northwest  Level Estimated
Mon 04:09:00 AM 34.9776 48.2591 325° Northwest  Level Estimated
Mon 04:10:00 AM 35.0784 48.1733 325° Northwest  Level Estimated
Mon 04:11:00 AM 35.1792 48.0873 325° Northwest  Level Estimated
Mon 04:12:00 AM 35.2800 48.0011 325° Northwest  Level Estimated
Mon 04:13:00 AM 35.3807 47.9147 325° Northwest  Level Estimated
Mon 04:14:00 AM 35.4813 47.8281 325° Northwest  Level Estimated
Mon 04:15:00 AM 35.5819 47.7412 325° Northwest  Level Estimated
Mon 04:16:00 AM 35.6824 47.6541 325° Northwest  Level Estimated
Mon 04:17:00 AM 35.7828 47.5669 325° Northwest  Level Estimated
Mon 04:18:00 AM 35.8832 47.4794 325° Northwest  Level Estimated
Mon 04:19:00 AM 35.9835 47.3916 325° Northwest  Level Estimated
Mon 04:20:00 AM 36.0838 47.3037 325° Northwest  Level Estimated
Mon 04:21:00 AM 36.1839 47.2155 325° Northwest  Level Estimated
Mon 04:22:00 AM 36.2841 47.1271 325° Northwest  Level Estimated
Mon 04:23:00 AM 36.3841 47.0385 325° Northwest  Level Estimated
Mon 04:24:00 AM 36.4841 46.9496 324° Northwest  Level Estimated
Mon 04:25:00 AM 36.5840 46.8605 324° Northwest  Level Estimated
Mon 04:26:00 AM 36.6839 46.7712 324° Northwest  Level Estimated
Mon 04:27:00 AM 36.7837 46.6816 324° Northwest  Level Estimated
Mon 04:28:00 AM 36.8835 46.5918 324° Northwest  Level Estimated
Mon 04:29:00 AM 36.9833 46.5016 324° Northwest  Level Estimated
Mon 04:30:00 AM 37.0830 46.4113 324° Northwest  Level Estimated
Mon 04:31:00 AM 37.1827 46.3206 324° Northwest  Level Estimated
Mon 04:32:00 AM 37.2822 46.2298 324° Northwest  Level Estimated
Mon 04:33:00 AM 37.3817 46.1387 324° Northwest  Level Estimated
Mon 04:34:00 AM 37.4812 46.0474 324° Northwest  Level Estimated
Mon 04:35:00 AM 37.5805 45.9558 324° Northwest  Level Estimated
Mon 04:36:00 AM 37.6798 45.8640 324° Northwest  Level Estimated
Mon 04:37:00 AM 37.7790 45.7720 324° Northwest  Level Estimated
Mon 04:38:00 AM 37.8782 45.6796 324° Northwest  Level Estimated
Mon 04:39:00 AM 37.9773 45.5871 324° Northwest  Level Estimated
Mon 04:40:00 AM 38.0763 45.4943 324° Northwest  Level Estimated
Mon 04:41:00 AM 38.1752 45.4012 324° Northwest  Level Estimated
Mon 04:42:00 AM 38.2741 45.3079 323° Northwest  Level Estimated
Mon 04:43:00 AM 38.3728 45.2144 323° Northwest  Level Estimated
Mon 04:44:00 AM 38.4715 45.1205 323° Northwest  Level Estimated
Mon 04:45:00 AM 38.5702 45.0265 323° Northwest  Level Estimated
Mon 04:46:00 AM 38.6687 44.9321 323° Northwest  Level Estimated
Mon 04:47:00 AM 38.7672 44.8375 323° Northwest  Level Estimated
Mon 04:48:00 AM 38.8656 44.7426 323° Northwest  Level Estimated
Mon 04:49:00 AM 38.9639 44.6475 323° Northwest  Level Estimated
Mon 04:50:00 AM 39.0622 44.5522 323° Northwest  Level Estimated
Mon 04:51:00 AM 39.1604 44.4565 323° Northwest  Level Estimated
Mon 04:52:00 AM 39.2584 44.3606 323° Northwest  Level Estimated
Mon 04:53:00 AM 39.3565 44.2644 323° Northwest  Level Estimated
Mon 04:54:00 AM 39.4544 44.1679 323° Northwest  Level Estimated
Mon 04:55:00 AM 39.5523 44.0712 323° Northwest  Level Estimated
Mon 04:56:00 AM 39.6500 43.9742 323° Northwest  Level Estimated
Mon 04:57:00 AM 39.7477 43.8769 323° Northwest  Level Estimated
Mon 04:58:00 AM 39.8453 43.7794 323° Northwest  Level Estimated
Mon 04:59:00 AM 39.9429 43.6815 322° Northwest  Level Estimated
Mon 05:00:00 AM 40.0403 43.5834 322° Northwest  Level Estimated
Mon 05:01:00 AM 40.1377 43.4850 322° Northwest  Level Estimated
Mon 05:02:00 AM 40.2350 43.3864 322° Northwest  Level Estimated
Mon 05:03:00 AM 40.3322 43.2874 322° Northwest  Level Estimated
Mon 05:04:00 AM 40.4293 43.1882 322° Northwest  Level Estimated
Mon 05:05:00 AM 40.5263 43.0886 322° Northwest  Level Estimated
Mon 05:06:00 AM 40.6232 42.9888 322° Northwest  Level Estimated
Mon 05:07:00 AM 40.7201 42.8887 322° Northwest  Level Estimated
Mon 05:08:00 AM 40.8169 42.7883 322° Northwest  Level Estimated
Mon 05:09:00 AM 40.9136 42.6876 322° Northwest  Level Estimated
Mon 05:09:57 AM 44.2870 48.1690 322° Northwest 505 581 36,000  Level FlightAware ADS-B
Mon 05:10:00 AM 41.0102 42.5866 322° Northwest  Level Estimated
Mon 05:10:32 AM 44.3640 48.1190 335° Northwest 506 582 36,000  Level FlightAware ADS-B
Mon 05:11:17 AM 44.4460 48.0630 334° Northwest 506 582 36,000  Level FlightAware ADS-B
Mon 05:12:07 AM 44.5350 48.0020 334° Northwest 506 582 36,000  Level FlightAware ADS-B
Mon 05:12:47 AM 44.6070 47.9530 334° Northwest 506 582 36,000  Level FlightAware ADS-B
Mon 05:13:27 AM 44.7250 47.8800 336° Northwest 508 585 36,000  Level FlightAware ADS-B
Mon 05:14:37 AM 44.7070 47.8920 155° Southeast 510 587 36,000  Level FlightAware ADS-B
Mon 05:15:17 AM 44.7790 47.8430 334° Northwest 510 587 36,000  Level FlightAware ADS-B
Mon 05:15:57 AM 45.0050 47.6960 335° Northwest 509 586 36,000  Level FlightAware ADS-B
Mon 05:16:37 AM 45.0050 47.6960 335° Northwest 508 585 36,000  Level FlightAware ADS-B
Mon 05:18:22 AM 45.3510 47.4640 335° Northwest 506 582 36,000  Level FlightAware ADS-B
Mon 05:19:07 AM 45.4460 47.3990 334° Northwest 503 579 36,000  Level FlightAware ADS-B
Mon 05:19:47 AM 45.5270 47.3410 333° Northwest 502 578 36,000  Level FlightAware ADS-B
Mon 05:20:32 AM 45.6270 47.2720 334° Northwest 500 575 36,000  Level FlightAware ADS-B
Mon 05:21:12 AM 45.7140 47.2110 334° Northwest 499 574 36,000  Level FlightAware ADS-B
Mon 05:21:52 AM 45.7870 47.1600 334° Northwest 499 574 36,000  Level FlightAware ADS-B
Mon 05:22:37 AM 45.8900 47.0870 334° Northwest 500 575 36,000  Level FlightAware ADS-B
Mon 05:23:17 AM 45.9750 47.0260 333° Northwest 501 577 36,000  Level FlightAware ADS-B
Mon 05:23:52 AM 46.0430 46.9710 331° Northwest 502 578 36,000  Level FlightAware ADS-B
Mon 05:24:37 AM 46.1310 46.9030 332° Northwest 503 579 36,000  Level FlightAware ADS-B
Mon 05:25:17 AM 46.2230 46.8280 331° Northwest 504 580 36,000  Level FlightAware ADS-B
Mon 05:26:07 AM 46.3020 46.7550 327° Northwest 504 580 36,000  Level FlightAware ADS-B
Mon 05:26:47 AM 46.3860 46.6780 328° Northwest 504 580 36,000  Level FlightAware ADS-B
Mon 05:27:32 AM 46.4780 46.5930 328° Northwest 504 580 36,000  Level FlightAware ADS-B
Mon 05:28:12 AM 46.5660 46.5120 328° Northwest 506 582 36,000  Level FlightAware ADS-B
Mon 05:28:52 AM 46.6460 46.4380 328° Northwest 506 582 36,000  Level FlightAware ADS-B
Mon 05:29:37 AM 46.7310 46.3580 327° Northwest 507 583 36,000  Level FlightAware ADS-B
Mon 05:30:17 AM 46.8070 46.2870 327° Northwest 507 583 36,000  Level FlightAware ADS-B
Mon 05:31:02 AM 46.8940 46.2050 327° Northwest 509 586 36,000  Level FlightAware ADS-B
Mon 05:31:42 AM 46.9730 46.1300 327° Northwest 508 585 36,000  Level FlightAware ADS-B
Mon 05:32:17 AM 47.0370 46.0700 327° Northwest 508 585 36,000  Level FlightAware ADS-B
Mon 05:33:02 AM 47.1330 45.9790 327° Northwest 508 585 36,000  Level FlightAware ADS-B
Mon 05:33:47 AM 47.2190 45.8970 327° Northwest 509 586 36,000  Level FlightAware ADS-B
Mon 05:34:32 AM 47.3060 45.8140 327° Northwest 510 587 36,000  Level FlightAware ADS-B
Mon 05:35:27 AM 47.4230 45.7010 327° Northwest 511 588 36,000  Level FlightAware ADS-B
Mon 05:36:07 AM 47.5020 45.6250 327° Northwest 513 590 36,000  Level FlightAware ADS-B
Mon 05:36:32 AM 47.5440 45.5840 327° Northwest 513 590 36,000  Level FlightAware ADS-B
Mon 05:37:07 AM 47.6230 45.5080 327° Northwest 513 590 36,000  Level FlightAware ADS-B
Mon 05:37:47 AM 47.6970 45.4350 326° Northwest 513 590 36,000  Level FlightAware ADS-B
Mon 05:38:37 AM 47.7960 45.3390 327° Northwest 510 587 36,000  Level FlightAware ADS-B
Mon 05:39:22 AM 47.8810 45.2550 326° Northwest 507 583 36,000  Level FlightAware ADS-B
Mon 05:40:02 AM 47.9640 45.1740 327° Northwest 507 583 36,000  Level FlightAware ADS-B
Mon 05:40:37 AM 48.0340 45.1040 326° Northwest 508 585 36,000  Level FlightAware ADS-B
Mon 05:41:42 AM 48.1550 44.9840 327° Northwest 510 587 36,000  Level FlightAware ADS-B
Mon 05:42:17 AM 48.2240 44.9130 326° Northwest 511 588 36,000  Level FlightAware ADS-B
Mon 05:43:02 AM 48.3190 44.8180 326° Northwest 511 588 36,000  Level FlightAware ADS-B
Mon 05:43:47 AM 48.4030 44.7320 326° Northwest 509 586 36,000  Level FlightAware ADS-B
Mon 05:44:27 AM 48.4790 44.6540 326° Northwest 508 585 36,000  Level FlightAware ADS-B
Mon 05:45:52 AM 48.6380 44.4920 326° Northwest 506 582 36,000  Level FlightAware ADS-B
Mon 05:46:32 AM 48.7040 44.4250 326° Northwest 506 582 36,000  Level FlightAware ADS-B
Mon 05:47:12 AM 48.7700 44.3570 326° Northwest 506 582 36,000  Level FlightAware ADS-B
Mon 05:47:52 AM 48.8360 44.2900 326° Northwest 506 582 36,000  Level FlightAware ADS-B
Mon 05:50:00 AM 49.0416 44.0415 322° Northwest  Level Estimated
Mon 05:51:00 AM 49.1378 43.9243 321° Northwest  Level Estimated
Mon 05:51:42 AM 49.2500 43.6910 321° Northwest 500 575 36,000  Level FlightAware ADS-B
Mon 05:54:00 AM 49.4703 43.4181 321° Northwest  Level Estimated
Mon 05:55:00 AM 49.5659 43.2987 321° Northwest  Level Estimated
Mon 05:56:00 AM 49.6613 43.1788 321° Northwest  Level Estimated
Mon 05:57:00 AM 49.7566 43.0584 321° Northwest  Level Estimated
Mon 05:58:00 AM 49.8519 42.9376 321° Northwest  Level Estimated
Mon 05:58:27 AM 49.8300 42.5710 321° Northwest 494 568 36,000  Level FlightAware ADS-B
Mon 05:59:12 AM 49.8940 42.4440 308° West 494 568 36,000  Level FlightAware ADS-B
Mon 05:59:52 AM 49.9490 42.3340 308° West 493 567 36,000  Level FlightAware ADS-B
Mon 06:00:37 AM 50.0130 42.2060 308° West 493 567 36,000  Level FlightAware ADS-B
Mon 06:01:17 AM 50.0680 42.0950 308° West 492 566 36,000  Level FlightAware ADS-B
Mon 06:01:57 AM 50.1190 41.9920 308° West 493 567 36,000  Level FlightAware ADS-B
Mon 06:02:42 AM 50.1850 41.8580 308° West 492 566 36,000  Level FlightAware ADS-B
Mon 06:03:22 AM 50.2420 41.7410 307° West 491 565 36,000  Level FlightAware ADS-B
Mon 06:04:02 AM 50.2960 41.6280 307° West 489 563 36,000  Level FlightAware ADS-B
Mon 06:04:47 AM 50.3550 41.5060 307° West 489 563 36,000  Level FlightAware ADS-B
Mon 06:05:27 AM 50.4110 41.3890 307° West 488 562 36,000  Level FlightAware ADS-B
Mon 06:06:12 AM 50.4720 41.2610 307° West 487 560 36,000  Level FlightAware ADS-B
Mon 06:06:52 AM 50.5250 41.1490 307° West 485 558 36,000  Level FlightAware ADS-B
Mon 06:07:32 AM 50.5770 41.0390 307° West 487 560 36,000  Level FlightAware ADS-B
Mon 06:08:17 AM 50.6390 40.9080 307° West 488 562 36,000  Level FlightAware ADS-B
Mon 06:08:57 AM 50.6930 40.7940 307° West 491 565 36,000  Level FlightAware ADS-B
Mon 06:09:37 AM 50.7410 40.6890 306° West 490 564 36,000  Level FlightAware ADS-B
Mon 06:10:22 AM 50.8080 40.5710 312° West 494 568 36,000  Level FlightAware ADS-B
Mon 06:11:02 AM 50.8840 40.4690 320° Northwest 497 572 36,000  Level FlightAware ADS-B
Mon 06:11:42 AM 50.9550 40.3780 321° Northwest 496 571 36,000  Level FlightAware ADS-B
Mon 06:12:22 AM 51.0150 40.3000 321° Northwest 496 571 36,000  Level FlightAware ADS-B
Mon 06:13:07 AM 51.1010 40.1850 320° Northwest 493 567 36,000  Level FlightAware ADS-B
Mon 06:13:52 AM 51.1820 40.0800 321° Northwest 492 566 36,000  Level FlightAware ADS-B
Mon 06:14:32 AM 51.2430 40.0020 321° Northwest 492 566 36,000  Level FlightAware ADS-B
Mon 06:15:12 AM 51.3030 39.9240 321° Northwest 492 566 36,000  Level FlightAware ADS-B
Mon 06:15:52 AM 51.3630 39.8460 321° Northwest 492 566 36,000  Level FlightAware ADS-B
Mon 06:16:32 AM 51.4230 39.7680 321° Northwest 492 566 36,000  Level FlightAware ADS-B
Mon 06:17:22 AM 51.4980 39.6700 321° Northwest 492 566 36,000  Level FlightAware ADS-B
Mon 06:18:02 AM 51.5580 39.5920 321° Northwest 492 566 36,000  Level FlightAware ADS-B
Mon 06:18:42 AM 51.6180 39.5140 321° Northwest 492 566 36,000  Level FlightAware ADS-B
Mon 06:19:22 AM 51.6780 39.4350 321° Northwest 492 566 36,000  Level FlightAware ADS-B
Mon 06:20:02 AM 51.7390 39.3560 321° Northwest 492 566 36,000  Level FlightAware ADS-B
Mon 06:20:52 AM 51.8140 39.2580 321° Northwest 492 566 36,000  Level FlightAware ADS-B
Mon 06:21:32 AM 51.8740 39.1790 321° Northwest 492 566 36,000  Level FlightAware ADS-B
Mon 06:22:12 AM 51.9340 39.1000 321° Northwest 492 566 36,000  Level FlightAware ADS-B
Mon 06:22:52 AM 51.9940 39.0210 321° Northwest 492 566 36,000  Level FlightAware ADS-B
Mon 06:25:00 AM 52.1880 38.7330 318° Northwest  Level Estimated
Mon 06:26:00 AM 52.2786 38.5971 318° Northwest  Level Estimated
Mon 06:26:42 AM 52.3810 38.0800 318° Northwest 496 571 36,000  Level FlightAware ADS-B
Mon 06:27:52 AM 52.5170 37.9660 333° Northwest 492 566 36,000  Level FlightAware ADS-B
Mon 06:28:32 AM 52.6030 37.8930 333° Northwest 489 563 36,000  Level FlightAware ADS-B
Mon 06:29:17 AM 52.6900 37.8200 333° Northwest 486 559 36,000  Level FlightAware ADS-B
Mon 06:29:57 AM 52.7710 37.7520 333° Northwest 484 557 36,000  Level FlightAware ADS-B
Mon 06:30:37 AM 52.8540 37.6810 333° Northwest 483 556 36,000  Level FlightAware ADS-B
Mon 06:31:22 AM 52.9420 37.6050 333° Northwest 483 556 36,000  Level FlightAware ADS-B
Mon 06:32:02 AM 53.0220 37.5370 333° Northwest 484 557 36,000  Level FlightAware ADS-B
Mon 06:32:47 AM 53.1110 37.4600 333° Northwest 485 558 36,000  Level FlightAware ADS-B
Mon 06:33:27 AM 53.1900 37.3910 332° Northwest 487 560 36,000  Level FlightAware ADS-B
Mon 06:34:02 AM 53.2610 37.3300 333° Northwest 487 560 36,000  Level FlightAware ADS-B
Mon 06:34:52 AM 53.3590 37.2440 332° Northwest 484 557 36,000  Level FlightAware ADS-B
Mon 06:35:37 AM 53.4460 37.1680 333° Northwest 480 552 36,000  Level FlightAware ADS-B
Mon 06:36:17 AM 53.5290 37.0940 332° Northwest 479 551 36,000  Level FlightAware ADS-B
Mon 06:36:57 AM 53.5970 37.0160 326° Northwest 479 551 36,000  Level FlightAware ADS-B
Mon 06:37:42 AM 53.6730 36.9000 318° Northwest 478 550 36,000  Level FlightAware ADS-B
Mon 06:38:22 AM 53.7420 36.7950 318° Northwest 477 549 36,000  Level FlightAware ADS-B
Mon 06:39:07 AM 53.8140 36.6820 317° Northwest 477 549 36,000  Level FlightAware ADS-B
Mon 06:39:47 AM 53.8790 36.5810 318° Northwest 479 551 36,000  Level FlightAware ADS-B
Mon 06:40:32 AM 53.9520 36.4660 317° Northwest 477 549 36,000  Level FlightAware ADS-B
Mon 06:41:12 AM 54.0000 36.3900 317° Northwest 476 548 36,000  Level FlightAware ADS-B
Mon 06:41:52 AM 54.0770 36.2680 317° Northwest 476 548 36,000  Level FlightAware ADS-B
Mon 06:42:32 AM 54.1410 36.1660 317° Northwest 474 545 36,000  Level FlightAware ADS-B
Mon 06:43:17 AM 54.2130 36.0510 317° Northwest 471 542 36,000  Level FlightAware ADS-B
Mon 06:43:57 AM 54.2750 35.9510 317° Northwest 469 540 36,000  Level FlightAware ADS-B
Mon 06:44:42 AM 54.3480 35.8360 317° Northwest 467 537 36,000  Level FlightAware ADS-B
Mon 06:45:22 AM 54.4130 35.7340 318° Northwest 467 537 36,000  Level FlightAware ADS-B
Mon 06:46:07 AM 54.4830 35.6220 317° Northwest 467 537 36,000  Level FlightAware ADS-B
Mon 06:46:47 AM 54.5460 35.5220 317° Northwest 468 539 36,000  Level FlightAware ADS-B
Mon 06:47:27 AM 54.6100 35.4210 318° Northwest 468 539 36,000  Level FlightAware ADS-B
Mon 06:48:12 AM 54.6820 35.3090 318° Northwest 469 540 36,000  Level FlightAware ADS-B
Mon 06:48:52 AM 54.7430 35.2100 317° Northwest 461 531 36,000  Level FlightAware ADS-B
Mon 06:49:32 AM 54.8000 35.0950 311° West 460 529 36,000  Level FlightAware ADS-B
Mon 06:50:17 AM 54.8640 34.9690 311° West 465 535 36,000  Level FlightAware ADS-B
Mon 06:50:57 AM 54.9200 34.8570 311° West 465 535 36,000  Level FlightAware ADS-B
Mon 06:51:42 AM 54.9860 34.7230 311° West 464 534 36,000  Level FlightAware ADS-B
Mon 06:52:22 AM 55.0410 34.6130 311° West 464 534 36,000  Level FlightAware ADS-B
Mon 06:53:02 AM 55.0970 34.5010 311° West 464 534 36,000  Level FlightAware ADS-B
Mon 06:53:47 AM 55.1590 34.3780 311° West 464 534 36,000  Level FlightAware ADS-B
Mon 06:54:27 AM 55.2180 34.2580 311° West 464 534 36,000  Level FlightAware ADS-B
Mon 06:55:07 AM 55.2730 34.1430 310° West 457 526 36,000  Level FlightAware ADS-B
Mon 06:57:00 AM 55.4328 33.8478 314° West  Level Estimated
Mon 06:57:17 AM 55.4450 33.7850 314° West 446 513 36,000  Level FlightAware ADS-B
Mon 06:57:57 AM 55.4950 33.6810 310° West 443 510 36,000  Level FlightAware ADS-B
Mon 06:58:42 AM 55.5530 33.5630 311° West 444 511 36,000  Level FlightAware ADS-B
Mon 06:59:22 AM 55.6130 33.4400 311° West 447 514 36,000  Level FlightAware ADS-B
Mon 07:00:02 AM 55.6670 33.3300 311° West 448 516 36,000  Level FlightAware ADS-B
Mon 07:00:47 AM 55.7270 33.2050 310° West 449 517 36,000  Level FlightAware ADS-B
Mon 07:01:27 AM 55.7780 33.0980 310° West 447 514 36,000  Level FlightAware ADS-B
Mon 07:02:12 AM 55.8390 32.9720 311° West 445 512 36,000  Level FlightAware ADS-B
Mon 07:02:52 AM 55.8890 32.8520 307° West 447 514 36,000  Level FlightAware ADS-B
Mon 07:03:27 AM 55.9310 32.7480 306° West 445 512 36,000  Level FlightAware ADS-B
Mon 07:04:17 AM 55.9880 32.6040 305° West 445 512 36,000  Level FlightAware ADS-B
Mon 07:04:57 AM 56.0380 32.4760 305° West 446 513 36,000  Level FlightAware ADS-B
Mon 07:05:37 AM 56.0850 32.3570 305° West 445 512 36,000  Level FlightAware ADS-B
Mon 07:06:22 AM 56.1390 32.2200 305° West 443 510 36,000  Level FlightAware ADS-B
Mon 07:06:57 AM 56.1770 32.1210 305° West 443 510 36,000  Level FlightAware ADS-B
Mon 07:08:12 AM 56.2270 31.9860 304° West 444 511 36,000  Level FlightAware ADS-B
Mon 07:08:47 AM 56.2010 32.0570 123° Southeast 444 511 36,000  Level FlightAware ADS-B
Mon 07:09:32 AM 56.2450 31.9320 302° West 444 511 36,000  Level FlightAware ADS-B
Mon 07:10:12 AM 56.2820 31.8250 302° West 444 511 36,000  Level FlightAware ADS-B
Mon 07:11:02 AM 56.3280 31.6920 302° West 444 511 36,000  Level FlightAware ADS-B
Mon 07:11:42 AM 56.3650 31.5850 302° West 444 511 36,000  Level FlightAware ADS-B
Mon 07:12:22 AM 56.4020 31.4780 302° West 444 511 36,000  Level FlightAware ADS-B
Mon 07:13:02 AM 56.4390 31.3710 302° West 444 511 36,000  Level FlightAware ADS-B
Mon 07:13:52 AM 56.4850 31.2370 302° West 444 511 36,000  Level FlightAware ADS-B
Mon 07:14:32 AM 56.5220 31.1290 302° West 444 511 36,000  Level FlightAware ADS-B
Mon 07:15:12 AM 56.5590 31.0220 302° West 444 511 36,000  Level FlightAware ADS-B
Mon 07:15:52 AM 56.5960 30.9140 302° West 444 511 36,000  Level FlightAware ADS-B
Mon 07:16:32 AM 56.6330 30.8070 302° West 444 511 36,000  Level FlightAware ADS-B
Mon 07:17:22 AM 56.6800 30.6720 302° West 444 511 36,000  Level FlightAware ADS-B
Mon 07:18:02 AM 56.7170 30.5640 302° West 444 511 36,000  Level FlightAware ADS-B
Mon 07:18:42 AM 56.7540 30.4560 302° West 444 511 36,000  Level FlightAware ADS-B
Mon 07:21:00 AM 56.9384 30.0632 311° West  Level Estimated
Mon 07:21:02 AM 57.1580 29.5170 311° West 452 520 36,000  Level FlightAware ADS-B
Mon 07:21:47 AM 57.2100 29.3700 303° West 452 520 36,000  Level FlightAware ADS-B
Mon 07:22:27 AM 57.2580 29.2340 303° West 453 521 36,000  Level FlightAware ADS-B
Mon 07:23:12 AM 57.3090 29.0900 303° West 452 520 36,000  Level FlightAware ADS-B
Mon 07:23:52 AM 57.3540 28.9600 303° West 451 519 36,000  Level FlightAware ADS-B
Mon 07:24:32 AM 57.4000 28.8300 303° West 450 518 36,000  Level FlightAware ADS-B
Mon 07:25:17 AM 57.4500 28.6830 302° West 449 517 36,000  Level FlightAware ADS-B
Mon 07:25:57 AM 57.4940 28.5550 303° West 449 517 36,000  Level FlightAware ADS-B
Mon 07:26:37 AM 57.5380 28.4280 303° West 451 519 36,000  Level FlightAware ADS-B
Mon 07:27:22 AM 57.5870 28.2820 302° West 449 517 36,000  Level FlightAware ADS-B
Mon 07:28:02 AM 57.6300 28.1560 303° West 450 518 36,000  Level FlightAware ADS-B
Mon 07:28:47 AM 57.6830 28.0000 302° West 452 520 36,000  Level FlightAware ADS-B
Mon 07:29:27 AM 57.7260 27.8690 302° West 454 522 36,000  Level FlightAware ADS-B
Mon 07:30:12 AM 57.7780 27.7150 302° West 456 525 36,000  Level FlightAware ADS-B
Mon 07:30:52 AM 57.8200 27.5880 302° West 454 522 36,000  Level FlightAware ADS-B
Mon 07:31:32 AM 57.8810 27.4730 315° West 454 522 36,000  Level FlightAware ADS-B
Mon 07:32:17 AM 57.9500 27.3560 318° Northwest 452 520 36,000  Level FlightAware ADS-B
Mon 07:32:57 AM 58.0110 27.2490 317° Northwest 452 520 36,000  Level FlightAware ADS-B
Mon 07:33:37 AM 58.0740 27.1400 318° Northwest 451 519 36,000  Level FlightAware ADS-B
Mon 07:34:22 AM 58.1390 27.0270 317° Northwest 452 520 36,000  Level FlightAware ADS-B
Mon 07:35:02 AM 58.2040 26.9140 318° Northwest 453 521 36,000  Level FlightAware ADS-B
Mon 07:35:42 AM 58.2660 26.8050 317° Northwest 454 522 36,000  Level FlightAware ADS-B
Mon 07:36:27 AM 58.3340 26.6840 317° Northwest 452 520 36,000  Level FlightAware ADS-B
Mon 07:37:12 AM 58.4010 26.5650 317° Northwest 452 520 36,000  Level FlightAware ADS-B
Mon 07:37:52 AM 58.4640 26.4520 317° Northwest 451 519 36,000  Level FlightAware ADS-B
Mon 07:38:37 AM 58.5310 26.3320 317° Northwest 452 520 36,000  Level FlightAware ADS-B
Mon 07:39:17 AM 58.5880 26.2300 317° Northwest 453 521 36,000  Level FlightAware ADS-B
Mon 07:40:02 AM 58.6560 26.1060 317° Northwest 451 519 36,000  Level FlightAware ADS-B
Mon 07:40:42 AM 58.7210 25.9860 316° Northwest 450 518 36,000  Level FlightAware ADS-B
Mon 07:41:22 AM 58.7820 25.8750 317° Northwest 449 517 36,000  Level FlightAware ADS-B
Mon 07:42:07 AM 58.8470 25.7540 316° Northwest 449 517 36,000  Level FlightAware ADS-B
Mon 07:42:42 AM 58.8990 25.6570 316° Northwest 449 517 36,000  Level FlightAware ADS-B
Mon 07:43:22 AM 58.9610 25.5470 318° Northwest 450 518 36,000  Level FlightAware ADS-B
Mon 07:44:02 AM 59.0240 25.4520 322° Northwest 452 520 36,000  Level FlightAware ADS-B
Mon 07:46:00 AM 59.1674 25.0724 307° West  Level Estimated
Mon 07:47:00 AM 59.2399 24.8782 306° West  Level Estimated
Mon 07:48:00 AM 59.3121 24.6831 306° West  Level Estimated
Mon 07:49:00 AM 59.3841 24.4872 306° West  Level Estimated
Mon 07:50:00 AM 59.4557 24.2905 306° West  Level Estimated
Mon 07:50:47 AM 59.7220 24.5250 306° West 463 533 36,000  Level FlightAware ADS-B
Mon 07:52:12 AM 59.8470 24.2530 313° West 456 525 36,000  Level FlightAware ADS-B
Mon 07:52:52 AM 59.9060 24.1230 312° West 458 527 36,000  Level FlightAware ADS-B
Mon 07:53:37 AM 59.9700 23.9790 312° West 461 531 36,000  Level FlightAware ADS-B
Mon 07:54:17 AM 60.0260 23.8530 312° West 463 533 36,000  Level FlightAware ADS-B
Mon 07:54:57 AM 60.0830 23.7240 312° West 463 533 36,000  Level FlightAware ADS-B
Mon 07:55:42 AM 60.1460 23.5800 311° West 462 532 36,000  Level FlightAware ADS-B
Mon 07:56:22 AM 60.2020 23.4500 311° West 461 531 36,000  Level FlightAware ADS-B
Mon 07:57:07 AM 60.2650 23.3050 311° West 462 532 36,000  Level FlightAware ADS-B
Mon 07:57:47 AM 60.3200 23.1770 311° West 455 524 36,000  Level FlightAware ADS-B
Mon 07:58:27 AM 60.3760 23.0460 311° West 455 524 36,000  Level FlightAware ADS-B
Mon 07:59:12 AM 60.4370 22.9020 311° West 456 525 36,000  Level FlightAware ADS-B
Mon 07:59:52 AM 60.4940 22.7680 311° West 458 527 36,000  Level FlightAware ADS-B
Mon 08:00:37 AM 60.5600 22.6110 311° West 463 533 36,000  Level FlightAware ADS-B
Mon 08:01:17 AM 60.6130 22.4850 311° West 462 532 36,000  Level FlightAware ADS-B
Mon 08:01:57 AM 60.6690 22.3480 310° West 461 531 36,000  Level FlightAware ADS-B
Mon 08:02:37 AM 60.7200 22.2250 310° West 462 532 36,000  Level FlightAware ADS-B
Mon 08:03:22 AM 60.7830 22.0720 310° West 460 529 36,000  Level FlightAware ADS-B
Mon 08:04:07 AM 60.8460 21.9160 310° West 461 531 36,000  Level FlightAware ADS-B
Mon 08:04:47 AM 60.9020 21.7790 310° West 463 533 36,000  Level FlightAware ADS-B
Mon 08:05:27 AM 60.9520 21.6550 310° West 465 535 36,000  Level FlightAware ADS-B
Mon 08:06:12 AM 61.0160 21.4950 310° West 466 536 36,000  Level FlightAware ADS-B
Mon 08:06:52 AM 61.0710 21.3540 309° West 464 534 36,000  Level FlightAware ADS-B
Mon 08:07:37 AM 61.1300 21.2070 310° West 463 533 36,000  Level FlightAware ADS-B
Mon 08:08:07 AM 61.1710 21.1030 309° West 462 532 36,000  Level FlightAware ADS-B
Mon 08:08:57 AM 61.2370 20.9320 309° West 461 531 36,000  Level FlightAware ADS-B
Mon 08:09:42 AM 61.2990 20.7720 309° West 461 531 36,000  Level FlightAware ADS-B
Mon 08:10:22 AM 61.3520 20.6350 309° West 461 531 36,000  Level FlightAware ADS-B
Mon 08:11:07 AM 61.4110 20.4800 309° West 463 533 36,000  Level FlightAware ADS-B
Mon 08:11:47 AM 61.4630 20.3440 309° West 464 534 36,000  Level FlightAware ADS-B
Mon 08:12:27 AM 61.5170 20.2010 308° West 463 533 36,000  Level FlightAware ADS-B
Mon 08:13:12 AM 61.5770 20.0420 308° West 465 535 36,000  Level FlightAware ADS-B
Mon 08:13:52 AM 61.6280 19.9050 308° West 466 536 36,000  Level FlightAware ADS-B
Mon 08:14:32 AM 61.6830 19.7570 308° West 467 537 36,000  Level FlightAware ADS-B
Mon 08:15:17 AM 61.7430 19.5920 308° West 467 537 36,000  Level FlightAware ADS-B
Mon 08:15:57 AM 61.7970 19.4670 312° West 474 545 36,000  Level FlightAware ADS-B
Mon 08:16:37 AM 61.8640 19.3290 316° Northwest 475 547 36,000  Level FlightAware ADS-B
Mon 08:19:00 AM 62.0129 18.7918 301° West  Level Estimated
Mon 08:20:00 AM 62.0748 18.5649 300° West  Level Estimated
Mon 08:21:00 AM 62.1362 18.3370 300° West  Level Estimated
Mon 08:22:00 AM 62.1974 18.1082 300° West  Level Estimated
Mon 08:23:00 AM 62.2581 17.8785 300° West  Level Estimated
Mon 08:24:00 AM 62.3184 17.6478 299° West  Level Estimated
Mon 08:24:27 AM 62.5880 17.7560 299° West 473 544 36,000  Level FlightAware ADS-B
Mon 08:27:00 AM 62.7397 17.1578 299° West  Level Estimated
Mon 08:28:00 AM 62.7985 16.9215 299° West  Level Estimated
Mon 08:28:17 AM 62.9320 16.9660 299° West 471 542 36,000  Level FlightAware ADS-B
Mon 08:29:02 AM 63.0000 16.8080 314° West 471 542 36,000  Level FlightAware ADS-B
Mon 08:29:47 AM 63.0660 16.6510 313° West 474 545 36,000  Level FlightAware ADS-B
Mon 08:30:27 AM 63.1260 16.5100 313° West 474 545 36,000  Level FlightAware ADS-B
Mon 08:31:07 AM 63.1860 16.3670 313° West 474 545 36,000  Level FlightAware ADS-B
Mon 08:31:52 AM 63.2520 16.2060 312° West 472 543 36,000  Level FlightAware ADS-B
Mon 08:32:27 AM 63.3040 16.0800 313° West 466 536 36,000  Level FlightAware ADS-B
Mon 08:33:12 AM 63.3720 15.9160 313° West 465 535 36,000  Level FlightAware ADS-B
Mon 08:33:57 AM 63.4360 15.7580 312° West 467 537 36,000  Level FlightAware ADS-B
Mon 08:34:37 AM 63.4960 15.6100 312° West 470 541 36,000  Level FlightAware ADS-B
Mon 08:35:22 AM 63.5600 15.4490 312° West 477 549 36,000  Level FlightAware ADS-B
Mon 08:36:02 AM 63.6200 15.3000 312° West 467 537 36,000  Level FlightAware ADS-B
Mon 08:36:37 AM 63.6700 15.1720 311° West 466 536 36,000  Level FlightAware ADS-B
Mon 08:39:00 AM 63.8000 14.5779 297° West  Level Estimated
Mon 08:39:27 AM 63.9140 14.5460 297° West 470 541 36,000  Level FlightAware ADS-B
Mon 08:40:12 AM 63.9800 14.3720 311° West 471 542 36,000  Level FlightAware ADS-B
Mon 08:40:52 AM 64.0370 14.2210 311° West 473 544 36,000  Level FlightAware ADS-B
Mon 08:41:37 AM 64.0990 14.0570 311° West 471 542 36,000  Level FlightAware ADS-B
Mon 08:42:22 AM 64.1580 13.8990 311° West 470 541 36,000  Level FlightAware ADS-B
Mon 08:43:02 AM 64.2190 13.7360 311° West 469 540 36,000  Level FlightAware ADS-B
Mon 08:43:42 AM 64.2750 13.5840 310° West 468 539 36,000  Level FlightAware ADS-B
Mon 08:44:27 AM 64.3360 13.4170 310° West 468 539 36,000  Level FlightAware ADS-B
Mon 08:47:00 AM 64.4662 12.7561 295° West  Level Estimated
Mon 08:47:27 AM 64.5890 12.7110 295° West 466 536 36,000  Level FlightAware ADS-B
Mon 08:48:12 AM 64.6470 12.5480 310° West 467 537 36,000  Level FlightAware ADS-B
Mon 08:49:07 AM 64.7210 12.3280 308° West 466 536 36,000  Level FlightAware ADS-B
Mon 08:49:47 AM 64.7660 12.1930 308° West 466 536 36,000  Level FlightAware ADS-B
Mon 08:50:27 AM 64.8110 12.0570 308° West 466 536 36,000  Level FlightAware ADS-B
Mon 08:51:07 AM 64.8570 11.9210 309° West 466 536 36,000  Level FlightAware ADS-B
Mon 08:51:57 AM 64.9130 11.7510 308° West 466 536 36,000  Level FlightAware ADS-B
Mon 08:52:27 AM 64.9470 11.6490 308° West 466 536 36,000  Level FlightAware ADS-B
Mon 08:53:17 AM 65.0670 11.3140 310° West 472 543 36,000  Level FlightAware ADS-B
Mon 08:54:02 AM 65.1280 11.1300 308° West 474 545 36,000  Level FlightAware ADS-B
Mon 08:54:42 AM 65.1820 10.9650 308° West 478 550 36,000  Level FlightAware ADS-B
Mon 08:55:22 AM 65.2300 10.8160 308° West 477 549 36,000  Level FlightAware ADS-B
Mon 08:56:07 AM 65.2850 10.6410 307° West 477 549 36,000  Level FlightAware ADS-B
Mon 08:56:47 AM 65.3300 10.4980 307° West 477 549 36,000  Level FlightAware ADS-B
Mon 08:57:27 AM 65.3760 10.3540 308° West 477 549 36,000  Level FlightAware ADS-B
Mon 08:58:07 AM 65.4210 10.2100 307° West 477 549 36,000  Level FlightAware ADS-B
Mon 08:58:57 AM 65.4770 10.0300 307° West 477 549 36,000  Level FlightAware ADS-B
Mon 08:59:37 AM 65.5220 9.8850 307° West 477 549 36,000  Level FlightAware ADS-B
Mon 09:00:17 AM 65.5670 9.7400 307° West 477 549 36,000  Level FlightAware ADS-B
Mon 09:00:57 AM 65.6130 9.5950 308° West 477 549 36,000  Level FlightAware ADS-B
Mon 09:01:37 AM 65.6580 9.4500 307° West 477 549 36,000  Level FlightAware ADS-B
Mon 09:02:27 AM 65.7140 9.2680 307° West 477 549 36,000  Level FlightAware ADS-B
Mon 09:03:07 AM 65.7590 9.1220 307° West 477 549 36,000  Level FlightAware ADS-B
Mon 09:03:47 AM 65.8040 8.9760 307° West 477 549 36,000  Level FlightAware ADS-B
Mon 09:04:27 AM 65.8500 8.8300 308° West 477 549 36,000  Level FlightAware ADS-B
Mon 09:05:07 AM 65.8950 8.6830 307° West 477 549 36,000  Level FlightAware ADS-B
Mon 09:07:00 AM 65.9732 8.1480 290° West  Level Estimated
Mon 09:08:00 AM 66.0140 7.8625 289° West  Level Estimated
Mon 09:09:00 AM 66.0542 7.5762 289° West  Level Estimated
Mon 09:10:00 AM 66.0939 7.2890 289° West  Level Estimated
Mon 09:11:00 AM 66.1331 7.0009 289° West  Level Estimated
Mon 09:12:00 AM 66.1717 6.7118 288° West  Level Estimated
Mon 09:13:00 AM 66.2098 6.4219 288° West  Level Estimated
Mon 09:14:00 AM 66.2474 6.1312 288° West  Level Estimated
Mon 09:15:00 AM 66.2844 5.8396 288° West  Level Estimated
Mon 09:16:00 AM 66.3208 5.5471 287° West  Level Estimated
Mon 09:17:00 AM 66.3567 5.2538 287° West  Level Estimated
Mon 09:18:00 AM 66.3921 4.9596 287° West  Level Estimated
Mon 09:19:00 AM 66.4269 4.6647 287° West  Level Estimated
Mon 09:20:00 AM 66.4611 4.3689 286° West  Level Estimated
Mon 09:21:00 AM 66.4948 4.0723 286° West  Level Estimated
Mon 09:22:00 AM 66.5279 3.7749 286° West  Level Estimated
Mon 09:23:00 AM 66.5605 3.4767 285° West  Level Estimated
Mon 09:24:00 AM 66.5925 3.1778 285° West  Level Estimated
Mon 09:25:00 AM 66.6239 2.8781 285° West  Level Estimated
Mon 09:26:00 AM 66.6547 2.5776 285° West  Level Estimated
Mon 09:27:00 AM 66.6848 2.2782 284° West  Level Estimated
Mon 09:28:00 AM 66.7143 1.9781 284° West  Level Estimated
Mon 09:29:00 AM 66.7432 1.6773 284° West  Level Estimated
Mon 09:30:00 AM 66.7716 1.3758 284° West  Level Estimated
Mon 09:31:00 AM 66.7994 1.0736 283° West  Level Estimated
Mon 09:32:00 AM 66.8266 0.7708 283° West  Level Estimated
Mon 09:33:00 AM 66.8532 0.4672 283° West  Level Estimated
Mon 09:34:00 AM 66.8793 0.1630 282° West  Level Estimated
Mon 09:35:00 AM 66.9047 -0.1418 282° West  Level Estimated
Mon 09:36:00 AM 66.9296 -0.4472 282° West  Level Estimated
Mon 09:37:00 AM 66.9539 -0.7533 282° West  Level Estimated
Mon 09:38:00 AM 66.9776 -1.0600 281° West  Level Estimated
Mon 09:39:00 AM 67.0007 -1.3673 281° West  Level Estimated
Mon 09:40:00 AM 67.0232 -1.6751 281° West  Level Estimated
Mon 09:41:00 AM 67.0451 -1.9835 280° West  Level Estimated
Mon 09:42:00 AM 67.0665 -2.2925 280° West  Level Estimated
Mon 09:43:00 AM 67.0872 -2.6020 280° West  Level Estimated
Mon 09:44:00 AM 67.1073 -2.9120 280° West  Level Estimated
Mon 09:45:00 AM 67.1268 -3.2225 279° West  Level Estimated
Mon 09:46:00 AM 67.1457 -3.5335 279° West  Level Estimated
Mon 09:47:00 AM 67.1640 -3.8450 279° West  Level Estimated
Mon 09:48:00 AM 67.1817 -4.1570 278° West  Level Estimated
Mon 09:49:00 AM 67.1988 -4.4694 278° West  Level Estimated
Mon 09:50:00 AM 67.2153 -4.7822 278° West  Level Estimated
Mon 09:51:00 AM 67.2312 -5.0955 278° West  Level Estimated
Mon 09:52:00 AM 67.2464 -5.4092 277° West  Level Estimated
Mon 09:53:00 AM 67.2611 -5.7232 277° West  Level Estimated
Mon 09:54:00 AM 67.2751 -6.0377 277° West  Level Estimated
Mon 09:55:00 AM 67.2885 -6.3525 276° West  Level Estimated
Mon 09:56:00 AM 67.3013 -6.6676 276° West  Level Estimated
Mon 09:57:00 AM 67.3135 -6.9831 276° West  Level Estimated
Mon 09:58:00 AM 67.3251 -7.2989 276° West  Level Estimated
Mon 09:59:00 AM 67.3360 -7.6150 275° West  Level Estimated
Mon 10:00:00 AM 67.3464 -7.9313 275° West  Level Estimated
Mon 10:01:00 AM 67.3561 -8.2480 275° West  Level Estimated
Mon 10:02:00 AM 67.3651 -8.5648 274° West  Level Estimated
Mon 10:03:00 AM 67.3736 -8.8820 274° West  Level Estimated
Mon 10:04:00 AM 67.3814 -9.1993 274° West  Level Estimated
Mon 10:05:00 AM 67.3886 -9.5168 274° West  Level Estimated
Mon 10:06:00 AM 67.3952 -9.8345 273° West  Level Estimated
Mon 10:07:00 AM 67.4012 -10.1524 273° West  Level Estimated
Mon 10:08:00 AM 67.4065 -10.4704 273° West  Level Estimated
Mon 10:09:00 AM 67.4112 -10.7886 272° West  Level Estimated
Mon 10:10:00 AM 67.4153 -11.1069 272° West  Level Estimated
Mon 10:11:00 AM 67.4188 -11.4253 272° West  Level Estimated
Mon 10:12:00 AM 67.4216 -11.7437 271° West  Level Estimated
Mon 10:13:00 AM 67.4238 -12.0623 271° West  Level Estimated
Mon 10:14:00 AM 67.4254 -12.3808 271° West  Level Estimated
Mon 10:15:00 AM 67.4263 -12.6995 271° West  Level Estimated
Mon 10:16:00 AM 67.4266 -13.0181 270° West  Level Estimated
Mon 10:17:00 AM 67.4263 -13.3367 270° West  Level Estimated
Mon 10:18:00 AM 67.4254 -13.6553 270° West  Level Estimated
Mon 10:19:00 AM 67.4238 -13.9739 269° West  Level Estimated
Mon 10:20:00 AM 67.4216 -14.2924 269° West  Level Estimated
Mon 10:21:00 AM 67.4188 -14.6109 269° West  Level Estimated
Mon 10:22:00 AM 67.4153 -14.9293 269° West  Level Estimated
Mon 10:23:00 AM 67.4112 -15.2476 268° West  Level Estimated
Mon 10:24:00 AM 67.4065 -15.5657 268° West  Level Estimated
Mon 10:25:00 AM 67.4012 -15.8838 268° West  Level Estimated
Mon 10:26:00 AM 67.3952 -16.2017 267° West  Level Estimated
Mon 10:27:00 AM 67.3886 -16.5194 267° West  Level Estimated
Mon 10:28:00 AM 67.3814 -16.8369 267° West  Level Estimated
Mon 10:29:00 AM 67.3736 -17.1542 266° West  Level Estimated
Mon 10:30:00 AM 67.3652 -17.4713 266° West  Level Estimated
Mon 10:31:00 AM 67.3561 -17.7882 266° West  Level Estimated
Mon 10:32:00 AM 67.3464 -18.1048 266° West  Level Estimated
Mon 10:33:00 AM 67.3361 -18.4212 265° West  Level Estimated
Mon 10:34:00 AM 67.3251 -18.7373 265° West  Level Estimated
Mon 10:35:00 AM 67.3136 -19.0531 265° West  Level Estimated
Mon 10:36:00 AM 67.3014 -19.3685 264° West  Level Estimated
Mon 10:37:00 AM 67.2886 -19.6837 264° West  Level Estimated
Mon 10:38:00 AM 67.2751 -19.9985 264° West  Level Estimated
Mon 10:39:00 AM 67.2611 -20.3129 264° West  Level Estimated
Mon 10:40:00 AM 67.2465 -20.6270 263° West  Level Estimated
Mon 10:41:00 AM 67.2312 -20.9407 263° West  Level Estimated
Mon 10:42:00 AM 67.2153 -21.2540 263° West  Level Estimated
Mon 10:43:00 AM 67.1989 -21.5668 262° West  Level Estimated
Mon 10:44:00 AM 67.1818 -21.8792 262° West  Level Estimated
Mon 10:45:00 AM 67.1641 -22.1912 262° West  Level Estimated
Mon 10:46:00 AM 67.1458 -22.5027 262° West  Level Estimated
Mon 10:47:00 AM 67.1268 -22.8137 261° West  Level Estimated
Mon 10:48:00 AM 67.1073 -23.1242 261° West  Level Estimated
Mon 10:49:00 AM 67.0872 -23.4342 261° West  Level Estimated
Mon 10:50:00 AM 67.0665 -23.7437 260° West  Level Estimated
Mon 10:51:00 AM 67.0452 -24.0527 260° West  Level Estimated
Mon 10:52:00 AM 67.0232 -24.3611 260° West  Level Estimated
Mon 10:53:00 AM 67.0007 -24.6689 260° West  Level Estimated
Mon 10:54:00 AM 66.9776 -24.9762 259° West  Level Estimated
Mon 10:55:00 AM 66.9539 -25.2829 259° West  Level Estimated
Mon 10:56:00 AM 66.9296 -25.5889 259° West  Level Estimated
Mon 10:57:00 AM 66.9048 -25.8944 258° West  Level Estimated
Mon 10:58:00 AM 66.8793 -26.1992 258° West  Level Estimated
Mon 10:59:00 AM 66.8532 -26.5034 258° West  Level Estimated
Mon 11:00:00 AM 66.8266 -26.8070 258° West  Level Estimated
Mon 11:01:00 AM 66.7994 -27.1098 257° West  Level Estimated
Mon 11:02:00 AM 66.7716 -27.4120 257° West  Level Estimated
Mon 11:03:00 AM 66.7433 -27.7135 257° West  Level Estimated
Mon 11:04:00 AM 66.7143 -28.0143 256° West  Level Estimated
Mon 11:05:00 AM 66.6848 -28.3144 256° West  Level Estimated
Mon 11:06:00 AM 66.6547 -28.6138 256° West  Level Estimated
Mon 11:07:00 AM 66.6241 -28.9124 256° West  Level Estimated
Mon 11:08:00 AM 66.5929 -29.2103 255° West  Level Estimated
Mon 11:09:00 AM 66.5611 -29.5074 255° West  Level Estimated
Mon 11:10:00 AM 66.5287 -29.8038 255° West  Level Estimated
Mon 11:11:00 AM 66.4958 -30.0994 255° West  Level Estimated
Mon 11:12:00 AM 66.4624 -30.3942 254° West  Level Estimated
Mon 11:13:00 AM 66.4284 -30.6882 254° West  Level Estimated
Mon 11:14:00 AM 66.3938 -30.9814 254° West  Level Estimated
Mon 11:15:00 AM 66.3587 -31.2738 253° West  Level Estimated
Mon 11:16:00 AM 66.3231 -31.5653 253° West  Level Estimated
Mon 11:17:00 AM 66.2869 -31.8561 253° West  Level Estimated
Mon 11:18:00 AM 66.2501 -32.1460 253° West  Level Estimated
Mon 11:19:00 AM 66.2129 -32.4350 252° West  Level Estimated
Mon 11:20:00 AM 66.1750 -32.7232 252° West  Level Estimated
Mon 11:21:00 AM 66.1367 -33.0105 252° West  Level Estimated
Mon 11:22:00 AM 66.0978 -33.2969 252° West  Level Estimated
Mon 11:23:00 AM 66.0584 -33.5825 251° West  Level Estimated
Mon 11:24:00 AM 66.0185 -33.8671 251° West  Level Estimated
Mon 11:25:00 AM 65.9780 -34.1509 251° West  Level Estimated
Mon 11:26:00 AM 65.9370 -34.4338 251° West  Level Estimated
Mon 11:27:00 AM 65.8955 -34.7158 250° West  Level Estimated
Mon 11:28:00 AM 65.8535 -34.9968 250° West  Level Estimated
Mon 11:29:00 AM 65.8110 -35.2769 250° West  Level Estimated
Mon 11:30:00 AM 65.7680 -35.5561 250° West  Level Estimated
Mon 11:31:00 AM 65.7244 -35.8344 249° West  Level Estimated
Mon 11:32:00 AM 65.6804 -36.1117 249° West  Level Estimated
Mon 11:33:00 AM 65.6358 -36.3880 249° West  Level Estimated
Mon 11:34:00 AM 65.5908 -36.6634 249° West  Level Estimated
Mon 11:35:00 AM 65.5452 -36.9379 248° West  Level Estimated
Mon 11:36:00 AM 65.4992 -37.2114 248° West  Level Estimated
Mon 11:37:00 AM 65.4526 -37.4839 248° West  Level Estimated
Mon 11:38:00 AM 65.4056 -37.7554 248° West  Level Estimated
Mon 11:39:00 AM 65.3581 -38.0260 247° West  Level Estimated
Mon 11:40:00 AM 65.3101 -38.2956 247° West  Level Estimated
Mon 11:41:00 AM 65.2617 -38.5642 247° West  Level Estimated
Mon 11:42:00 AM 65.2127 -38.8318 247° West  Level Estimated
Mon 11:43:00 AM 65.1633 -39.0984 246° West  Level Estimated
Mon 11:44:00 AM 65.1134 -39.3641 246° West  Level Estimated
Mon 11:45:00 AM 65.0630 -39.6287 246° West  Level Estimated
Mon 11:46:00 AM 65.0122 -39.8923 246° West  Level Estimated
Mon 11:46:02 AM 67.0240 -45.5690 246° West 460 529 36,000  Level FlightAware ADS-B
Mon 11:46:42 AM 66.9840 -45.7640 242° Southwest 462 532 36,000  Level FlightAware ADS-B
Mon 11:47:22 AM 66.9440 -45.9590 242° Southwest 460 529 36,000  Level FlightAware ADS-B
Mon 11:48:07 AM 66.8980 -46.1780 242° Southwest 459 528 36,000  Level FlightAware ADS-B
Mon 11:48:47 AM 66.8570 -46.3700 242° Southwest 461 531 36,000  Level FlightAware ADS-B
Mon 11:49:27 AM 66.8180 -46.5570 242° Southwest 463 533 36,000  Level FlightAware ADS-B
Mon 11:50:12 AM 66.7730 -46.7660 241° Southwest 464 534 36,000  Level FlightAware ADS-B
Mon 11:50:52 AM 66.7320 -46.9560 241° Southwest 465 535 36,000  Level FlightAware ADS-B
Mon 11:51:32 AM 66.6900 -47.1450 241° Southwest 465 535 36,000  Level FlightAware ADS-B
Mon 11:52:22 AM 66.6370 -47.3840 241° Southwest 463 533 36,000  Level FlightAware ADS-B
Mon 11:53:02 AM 66.5950 -47.5720 241° Southwest 466 536 36,000  Level FlightAware ADS-B
Mon 11:53:42 AM 66.5520 -47.7630 241° Southwest 467 537 36,000  Level FlightAware ADS-B
Mon 11:54:17 AM 66.5180 -47.9140 241° Southwest 467 537 36,000  Level FlightAware ADS-B
Mon 11:55:02 AM 66.4750 -48.1010 240° Southwest 467 537 36,000  Level FlightAware ADS-B
Mon 11:55:52 AM 66.4290 -48.3000 240° Southwest 467 537 36,000  Level FlightAware ADS-B
Mon 11:56:32 AM 66.3920 -48.4590 240° Southwest 467 537 36,000  Level FlightAware ADS-B
Mon 11:57:12 AM 66.3560 -48.6180 241° Southwest 467 537 36,000  Level FlightAware ADS-B
Mon 11:57:52 AM 66.3190 -48.7770 240° Southwest 467 537 36,000  Level FlightAware ADS-B
Mon 11:58:32 AM 66.2820 -48.9350 240° Southwest 467 537 36,000  Level FlightAware ADS-B
Mon 11:59:22 AM 66.2360 -49.1320 240° Southwest 467 537 36,000  Level FlightAware ADS-B
Mon 12:00:02 PM 66.1990 -49.2900 240° Southwest 467 537 36,000  Level FlightAware ADS-B
Mon 12:00:42 PM 66.1630 -49.4470 240° Southwest 467 537 36,000  Level FlightAware ADS-B
Mon 12:01:22 PM 66.1260 -49.6050 240° Southwest 467 537 36,000  Level FlightAware ADS-B
Mon 12:02:02 PM 66.0890 -49.7620 240° Southwest 467 537 36,000  Level FlightAware ADS-B
Mon 12:02:42 PM 66.0520 -49.9190 240° Southwest 467 537 36,000  Level FlightAware ADS-B
Mon 12:03:32 PM 66.0060 -50.1140 240° Southwest 467 537 36,000  Level FlightAware ADS-B
Mon 12:04:12 PM 65.9700 -50.2710 241° Southwest 467 537 36,000  Level FlightAware ADS-B
Mon 12:06:00 PM 65.8288 -50.6846 230° Southwest  Level Estimated
Mon 12:07:00 PM 65.7498 -50.9125 230° Southwest  Level Estimated
Mon 12:08:00 PM 65.6706 -51.1389 230° Southwest  Level Estimated
Mon 12:09:00 PM 65.5910 -51.3640 229° Southwest  Level Estimated
Mon 12:10:00 PM 65.5110 -51.5877 229° Southwest  Level Estimated
Mon 12:11:00 PM 65.4308 -51.8100 229° Southwest  Level Estimated
Mon 12:12:00 PM 65.3502 -52.0309 229° Southwest  Level Estimated
Mon 12:13:00 PM 65.2693 -52.2505 229° Southwest  Level Estimated
Mon 12:14:00 PM 65.1880 -52.4688 228° Southwest  Level Estimated
Mon 12:14:28 PM 65.0333 -52.9500 227° Southwest 470 541 36,000  Level Gander Center
Mon 12:15:00 PM 65.1065 -52.6857 228° Southwest  Level Estimated
Mon 12:15:28 PM 64.9500 -53.1667 228° Southwest 470 541 36,000  Level Gander Center
Mon 12:16:00 PM 65.0247 -52.9013 228° Southwest  Level Estimated
Mon 12:16:28 PM 64.8500 -53.3833 223° Southwest 470 541 36,000  Level Gander Center
Mon 12:17:00 PM 64.9425 -53.1156 228° Southwest  Level Estimated
Mon 12:17:28 PM 64.7833 -53.6333 238° Southwest 470 541 36,000  Level Gander Center
Mon 12:18:00 PM 64.8600 -53.3285 228° Southwest  Level Estimated
Mon 12:18:28 PM 64.7000 -53.8500 228° Southwest 470 541 36,000  Level Gander Center
Mon 12:19:00 PM 64.7773 -53.5402 228° Southwest  Level Estimated
Mon 12:19:28 PM 64.6000 -54.0667 223° Southwest 470 541 36,000  Level Gander Center
Mon 12:20:00 PM 64.6942 -53.7505 227° Southwest  Level Estimated
Mon 12:20:28 PM 64.5333 -54.2833 234° Southwest 470 541 36,000  Level Gander Center
Mon 12:21:28 PM 64.4333 -54.5333 227° Southwest 470 541 36,000  Level Gander Center
Mon 12:22:28 PM 64.3500 -54.7500 228° Southwest 470 541 36,000  Level Gander Center
Mon 12:23:28 PM 64.2667 -54.9667 229° Southwest 470 541 36,000  Level Gander Center
Mon 12:24:28 PM 64.1667 -55.2167 228° Southwest 470 541 36,000  Level Gander Center
Mon 12:25:28 PM 64.0833 -55.4167 226° Southwest 470 541 36,000  Level Gander Center
Mon 12:26:28 PM 63.9833 -55.6167 221° Southwest 470 541 36,000  Level Gander Center
Mon 12:27:28 PM 63.9000 -55.8667 233° Southwest 470 541 36,000  Level Gander Center
Mon 12:28:28 PM 63.8167 -56.0667 227° Southwest 470 541 36,000  Level Gander Center
Mon 12:29:28 PM 63.7333 -56.2667 227° Southwest 470 541 36,000  Level Gander Center
Mon 12:30:28 PM 63.6333 -56.4833 224° Southwest 480 552 36,000  Level Gander Center
Mon 12:31:28 PM 63.5500 -56.7167 231° Southwest 470 541 36,000  Level Gander Center
Mon 12:32:28 PM 63.4667 -56.9167 227° Southwest 470 541 36,000  Level Gander Center
Mon 12:33:28 PM 63.3833 -57.1167 227° Southwest 470 541 36,000  Level Gander Center
Mon 12:34:28 PM 63.2833 -57.3000 220° Southwest 470 541 36,000 50 Level Gander Center
Mon 12:35:28 PM 63.1833 -57.5333 227° Southwest 470 541 36,100 750 Climbing Gander Center
Mon 12:36:28 PM 63.1000 -57.7333 227° Southwest 470 541 37,500 1,125 Climbing Gander Center
Mon 12:37:04 PM 63.0500 -57.7667 197° South 470 541 37,900 313 Climbing Montreal Center
Mon 12:38:04 PM 62.9500 -57.9833 225° Southwest 460 529 38,000 50 Climbing Montreal Center
Mon 12:39:04 PM 62.8667 -58.1833 228° Southwest 460 529 38,000  Level Montreal Center
Mon 12:40:04 PM 62.7833 -58.3833 228° Southwest 460 529 38,000  Level Montreal Center
Mon 12:40:28 PM 62.7333 -58.5333 234° Southwest 460 529 38,000  Level Gander Center
Mon 12:41:28 PM 62.6500 -58.7167 225° Southwest 470 541 38,000  Level Gander Center
Mon 12:42:28 PM 62.5500 -58.9167 223° Southwest 470 541 38,000  Level Gander Center
Mon 12:43:28 PM 62.4500 -59.1000 220° Southwest 460 529 38,000  Level Gander Center
Mon 12:44:09 PM 62.4000 -59.2500 234° Southwest 460 529 38,000  Level Gander Center
Mon 12:45:09 PM 62.3167 -59.4333 226° Southwest 460 529 38,000  Level Gander Center
Mon 12:46:09 PM 62.2167 -59.6167 221° Southwest 460 529 38,000  Level Gander Center
Mon 12:46:28 PM 62.1833 -59.6833 223° Southwest 460 529 38,000  Level Gander Center
Mon 12:47:09 PM 62.1167 -59.8000 219° Southwest 460 529 38,000  Level Gander Center
Mon 12:48:04 PM 62.0333 -59.9167 213° Southwest 460 529 38,000  Level Montreal Center
Mon 12:49:04 PM 61.9333 -60.1000 221° Southwest 460 529 38,000  Level Montreal Center
Mon 12:49:28 PM 61.9000 -60.2333 242° Southwest 460 529 38,000  Level Gander Center
Mon 12:50:04 PM 61.8333 -60.2667 193° South 460 529 38,000  Level Montreal Center
Mon 12:51:04 PM 61.7500 -60.4500 226° Southwest 460 529 38,000  Level Montreal Center
Mon 12:51:28 PM 61.7167 -60.5833 242° Southwest 460 529 38,000  Level Gander Center
Mon 12:52:04 PM 61.6500 -60.6500 205° Southwest 450 518 38,000  Level Montreal Center
Mon 12:53:04 PM 61.5500 -60.8000 216° Southwest 450 518 38,000  Level Montreal Center
Mon 12:55:00 PM 61.3740 -61.1181 221° Southwest  Level FlightAware Approximate
Mon 01:02:00 PM 60.7013 -62.2900 221° Southwest  Level FlightAware Approximate
Mon 01:03:00 PM 60.6044 -62.4534 220° Southwest  Level FlightAware Approximate
Mon 01:04:00 PM 60.5096 -62.6211 222° Southwest  Level FlightAware Approximate
Mon 01:05:00 PM 60.4159 -62.7913 222° Southwest  Level FlightAware Approximate
Mon 01:06:00 PM 60.3221 -62.9604 222° Southwest  Level FlightAware Approximate
Mon 01:07:00 PM 60.2260 -63.1239 220° Southwest  Level FlightAware Approximate
Mon 01:08:00 PM 60.1291 -63.2851 220° Southwest  Level FlightAware Approximate
Mon 01:09:00 PM 60.0321 -63.4452 220° Southwest  Level FlightAware Approximate
Mon 01:10:00 PM 59.9348 -63.6045 219° Southwest  Level FlightAware Approximate
Mon 01:11:00 PM 59.8374 -63.7628 219° Southwest  Level FlightAware Approximate
Mon 01:12:00 PM 59.7400 -63.9208 219° Southwest  Level FlightAware Approximate
Mon 01:13:00 PM 59.6428 -64.0787 219° Southwest  Level FlightAware Approximate
Mon 01:14:00 PM 59.5454 -64.2357 219° Southwest  Level FlightAware Approximate
Mon 01:15:00 PM 59.4478 -64.3918 219° Southwest  Level FlightAware Approximate
Mon 01:16:00 PM 59.3500 -64.5470 219° Southwest  Level FlightAware Approximate
Mon 01:17:00 PM 59.2520 -64.7013 219° Southwest  Level FlightAware Approximate
Mon 01:18:00 PM 59.1539 -64.8548 219° Southwest  Level FlightAware Approximate
Mon 01:19:00 PM 59.0555 -65.0073 219° Southwest  Level FlightAware Approximate
Mon 01:20:00 PM 58.9570 -65.1590 218° Southwest  Level FlightAware Approximate
Mon 01:21:00 PM 58.8583 -65.3098 218° Southwest  Level FlightAware Approximate
Mon 01:22:00 PM 58.7595 -65.4597 218° Southwest  Level FlightAware Approximate
Mon 01:23:00 PM 58.6605 -65.6088 218° Southwest  Level FlightAware Approximate
Mon 01:24:00 PM 58.5613 -65.7571 218° Southwest  Level FlightAware Approximate
Mon 01:25:00 PM 58.4619 -65.9045 218° Southwest  Level FlightAware Approximate
Mon 01:26:00 PM 58.3624 -66.0511 218° Southwest  Level FlightAware Approximate
Mon 01:27:00 PM 58.2626 -66.1969 218° Southwest  Level FlightAware Approximate
Mon 01:28:00 PM 58.1628 -66.3418 217° Southwest  Level FlightAware Approximate
Mon 01:29:00 PM 58.0627 -66.4859 217° Southwest  Level FlightAware Approximate
Mon 01:30:00 PM 57.9625 -66.6293 217° Southwest  Level FlightAware Approximate
Mon 01:31:00 PM 57.8622 -66.7718 217° Southwest  Level FlightAware Approximate
Mon 01:32:00 PM 57.7617 -66.9136 217° Southwest  Level FlightAware Approximate
Mon 01:33:00 PM 57.6587 -67.0482 212° Southwest  Level FlightAware Approximate
Mon 01:34:00 PM 57.5520 -67.1722 212° Southwest  Level FlightAware Approximate
Mon 01:35:00 PM 57.4451 -67.2954 212° Southwest  Level FlightAware Approximate
Mon 01:36:00 PM 57.3382 -67.4180 212° Southwest  Level FlightAware Approximate
Mon 01:37:00 PM 57.2311 -67.5398 212° Southwest  Level FlightAware Approximate
Mon 01:38:00 PM 57.1239 -67.6609 212° Southwest  Level FlightAware Approximate
Mon 01:39:00 PM 57.0165 -67.7813 211° Southwest  Level FlightAware Approximate
Mon 01:40:00 PM 56.9091 -67.9011 211° Southwest  Level FlightAware Approximate
Mon 01:41:00 PM 56.8015 -68.0201 211° Southwest  Level FlightAware Approximate
Mon 01:42:00 PM 56.6939 -68.1385 211° Southwest  Level FlightAware Approximate
Mon 01:43:00 PM 56.5866 -68.2576 211° Southwest  Level FlightAware Approximate
Mon 01:44:00 PM 56.4792 -68.3763 211° Southwest  Level FlightAware Approximate
Mon 01:45:00 PM 56.3717 -68.4942 211° Southwest  Level FlightAware Approximate
Mon 01:46:00 PM 56.2642 -68.6115 211° Southwest  Level FlightAware Approximate
Mon 01:47:00 PM 56.1565 -68.7282 211° Southwest  Level FlightAware Approximate
Mon 01:48:00 PM 56.0487 -68.8441 211° Southwest  Level FlightAware Approximate
Mon 01:49:00 PM 55.9408 -68.9595 211° Southwest  Level FlightAware Approximate
Mon 01:50:00 PM 55.8328 -69.0742 211° Southwest  Level FlightAware Approximate
Mon 01:51:00 PM 55.7247 -69.1882 211° Southwest  Level FlightAware Approximate
Mon 01:52:00 PM 55.6165 -69.3017 211° Southwest  Level FlightAware Approximate
Mon 01:53:00 PM 55.5081 -69.4145 211° Southwest  Level FlightAware Approximate
Mon 01:54:00 PM 55.3997 -69.5267 210° Southwest  Level FlightAware Approximate
Mon 01:55:00 PM 55.2912 -69.6383 210° Southwest  Level FlightAware Approximate
Mon 01:56:00 PM 55.1825 -69.7492 210° Southwest  Level FlightAware Approximate
Mon 01:57:00 PM 55.0738 -69.8596 210° Southwest  Level FlightAware Approximate
Mon 01:58:00 PM 54.9650 -69.9693 210° Southwest  Level FlightAware Approximate
Mon 01:59:00 PM 54.8560 -70.0785 210° Southwest  Level FlightAware Approximate
Mon 02:00:00 PM 54.7470 -70.1871 210° Southwest  Level FlightAware Approximate
Mon 02:01:00 PM 54.6379 -70.2951 210° Southwest  Level FlightAware Approximate
Mon 02:02:00 PM 54.5286 -70.4024 210° Southwest  Level FlightAware Approximate
Mon 02:03:00 PM 54.4193 -70.5091 210° Southwest  Level FlightAware Approximate
Mon 02:04:00 PM 54.3099 -70.6153 210° Southwest  Level FlightAware Approximate
Mon 02:05:00 PM 54.2003 -70.7209 209° Southwest  Level FlightAware Approximate
Mon 02:06:00 PM 54.0907 -70.8260 209° Southwest  Level FlightAware Approximate
Mon 02:07:00 PM 53.9810 -70.9305 209° Southwest  Level FlightAware Approximate
Mon 02:08:00 PM 53.8712 -71.0344 209° Southwest  Level FlightAware Approximate
Mon 02:09:00 PM 53.7613 -71.1379 209° Southwest  Level FlightAware Approximate
Mon 02:10:00 PM 53.6513 -71.2407 209° Southwest  Level FlightAware Approximate
Mon 02:11:00 PM 53.5413 -71.3431 209° Southwest  Level FlightAware Approximate
Mon 02:12:00 PM 53.4311 -71.4449 209° Southwest  Level FlightAware Approximate
Mon 02:13:00 PM 53.3209 -71.5462 209° Southwest  Level FlightAware Approximate
Mon 02:14:00 PM 53.2105 -71.6469 209° Southwest  Level FlightAware Approximate
Mon 02:15:00 PM 53.1001 -71.7472 209° Southwest  Level FlightAware Approximate
Mon 02:16:00 PM 52.9896 -71.8469 209° Southwest  Level FlightAware Approximate
Mon 02:17:00 PM 52.8790 -71.9461 208° Southwest  Level FlightAware Approximate
Mon 02:18:00 PM 52.7684 -72.0448 208° Southwest  Level FlightAware Approximate
Mon 02:19:00 PM 52.6576 -72.1430 208° Southwest  Level FlightAware Approximate
Mon 02:20:00 PM 52.5468 -72.2407 208° Southwest  Level FlightAware Approximate
Mon 02:21:00 PM 52.4359 -72.3380 208° Southwest  Level FlightAware Approximate
Mon 02:22:00 PM 52.3249 -72.4347 208° Southwest  Level FlightAware Approximate
Mon 02:23:00 PM 52.2139 -72.5309 208° Southwest  Level FlightAware Approximate
Mon 02:24:00 PM 52.1027 -72.6267 208° Southwest  Level FlightAware Approximate
Mon 02:25:00 PM 51.9915 -72.7220 208° Southwest  Level FlightAware Approximate
Mon 02:26:00 PM 51.8802 -72.8167 207° Southwest  Level FlightAware Approximate
Mon 02:27:00 PM 51.7686 -72.9103 207° Southwest  Level FlightAware Approximate
Mon 02:28:00 PM 51.6569 -73.0034 207° Southwest  Level FlightAware Approximate
Mon 02:29:00 PM 51.5451 -73.0961 207° Southwest  Level FlightAware Approximate
Mon 02:30:00 PM 51.4333 -73.1883 207° Southwest  Level FlightAware Approximate
Mon 02:31:00 PM 51.3214 -73.2801 207° Southwest  Level FlightAware Approximate
Mon 02:32:00 PM 51.2094 -73.3714 207° Southwest  Level FlightAware Approximate
Mon 02:33:00 PM 51.0973 -73.4622 207° Southwest  Level FlightAware Approximate
Mon 02:34:00 PM 50.9852 -73.5527 207° Southwest  Level FlightAware Approximate
Mon 02:35:00 PM 50.8730 -73.6427 207° Southwest  Level FlightAware Approximate
Mon 02:36:00 PM 50.7608 -73.7322 207° Southwest  Level FlightAware Approximate
Mon 02:37:00 PM 50.6484 -73.8214 207° Southwest  Level FlightAware Approximate
Mon 02:38:00 PM 50.5358 -73.9093 206° Southwest  Level FlightAware Approximate
Mon 02:39:00 PM 50.4230 -73.9966 206° Southwest  Level FlightAware Approximate
Mon 02:40:00 PM 50.3102 -74.0835 206° Southwest  Level FlightAware Approximate
Mon 02:41:00 PM 50.1973 -74.1700 206° Southwest  Level FlightAware Approximate
Mon 02:42:00 PM 50.0843 -74.2561 206° Southwest  Level FlightAware Approximate
Mon 02:43:00 PM 49.9713 -74.3418 206° Southwest  Level FlightAware Approximate
Mon 02:44:00 PM 49.8582 -74.4271 206° Southwest  Level FlightAware Approximate
Mon 02:45:00 PM 49.7458 -74.5142 208° Southwest  Level FlightAware Approximate
Mon 02:46:00 PM 49.6348 -74.6053 208° Southwest  Level FlightAware Approximate
Mon 02:47:00 PM 49.5237 -74.6959 208° Southwest  Level FlightAware Approximate
Mon 02:48:00 PM 49.4125 -74.7862 208° Southwest  Level FlightAware Approximate
Mon 02:49:00 PM 49.3012 -74.8760 208° Southwest  Level FlightAware Approximate
Mon 02:50:00 PM 49.1899 -74.9655 208° Southwest  Level FlightAware Approximate
Mon 02:51:00 PM 49.0785 -75.0545 208° Southwest  Level FlightAware Approximate
Mon 02:52:00 PM 48.9670 -75.1431 208° Southwest  Level FlightAware Approximate
Mon 02:53:00 PM 48.8555 -75.2314 208° Southwest  Level FlightAware Approximate
Mon 02:54:00 PM 48.7439 -75.3192 207° Southwest  Level FlightAware Approximate
Mon 02:55:00 PM 48.6328 -75.4083 209° Southwest  Level FlightAware Approximate
Mon 02:56:00 PM 48.5223 -75.4990 209° Southwest  Level FlightAware Approximate
Mon 02:57:00 PM 48.4118 -75.5893 208° Southwest  Level FlightAware Approximate
Mon 02:58:00 PM 48.3009 -75.6786 207° Southwest  Level FlightAware Approximate
Mon 02:59:00 PM 48.1886 -75.7634 207° Southwest  Level FlightAware Approximate
Mon 03:00:00 PM 48.0762 -75.8478 207° Southwest  Level FlightAware Approximate
Mon 03:01:00 PM 47.9638 -75.9319 207° Southwest  Level FlightAware Approximate
Mon 03:02:00 PM 47.8513 -76.0156 207° Southwest  Level FlightAware Approximate
Mon 03:03:00 PM 47.7387 -76.0990 206° Southwest  Level FlightAware Approximate
Mon 03:04:00 PM 47.6261 -76.1819 206° Southwest  Level FlightAware Approximate
Mon 03:05:00 PM 47.5135 -76.2649 207° Southwest  Level FlightAware Approximate
Mon 03:06:00 PM 47.4015 -76.3490 207° Southwest  Level FlightAware Approximate
Mon 03:07:00 PM 47.2893 -76.4328 207° Southwest  Level FlightAware Approximate
Mon 03:08:00 PM 47.1771 -76.5163 207° Southwest  Level FlightAware Approximate
Mon 03:09:00 PM 47.0648 -76.5993 207° Southwest  Level FlightAware Approximate
Mon 03:10:00 PM 46.9524 -76.6821 207° Southwest  Level FlightAware Approximate
Mon 03:11:00 PM 46.8400 -76.7645 207° Southwest  Level FlightAware Approximate
Mon 03:12:00 PM 46.7276 -76.8465 207° Southwest  Level FlightAware Approximate
Mon 03:13:00 PM 46.6151 -76.9282 207° Southwest  Level FlightAware Approximate
Mon 03:14:00 PM 46.5025 -77.0096 206° Southwest  Level FlightAware Approximate
Mon 03:15:00 PM 46.3898 -77.0906 206° Southwest  Level FlightAware Approximate
Mon 03:16:00 PM 46.2771 -77.1713 206° Southwest  Level FlightAware Approximate
Mon 03:17:00 PM 46.1643 -77.2515 203° Southwest  Level FlightAware Approximate
Mon 03:18:00 PM 46.0490 -77.3236 203° Southwest  Level FlightAware Approximate
Mon 03:19:00 PM 45.9356 -77.4017 206° Southwest  Level FlightAware Approximate
Mon 03:19:02 PM 46.4730 -77.0370 206° Southwest 441 507 38,000  Level FlightAware ADS-B
Mon 03:19:52 PM 46.3790 -77.1030 206° Southwest 444 511 38,000  Level FlightAware ADS-B
Mon 03:20:32 PM 46.3030 -77.1570 206° Southwest 440 506 38,000  Level FlightAware ADS-B
Mon 03:21:17 PM 46.2180 -77.2170 206° Southwest 430 495 38,000  Level FlightAware ADS-B
Mon 03:21:57 PM 46.1480 -77.2660 206° Southwest 430 495 38,000  Level FlightAware ADS-B
Mon 03:22:37 PM 46.0740 -77.3180 206° Southwest 431 496 38,000  Level FlightAware ADS-B
Mon 03:23:22 PM 45.9950 -77.3730 206° Southwest 433 498 38,000  Level FlightAware ADS-B
Mon 03:24:02 PM 45.9230 -77.4230 206° Southwest 431 496 38,000  Level FlightAware ADS-B
Mon 03:24:42 PM 45.8510 -77.4730 206° Southwest 421 484 38,000  Level FlightAware ADS-B
Mon 03:25:27 PM 45.7800 -77.5220 206° Southwest 418 481 38,000  Level FlightAware ADS-B
Mon 03:26:07 PM 45.7030 -77.5750 206° Southwest 418 481 38,000  Level FlightAware ADS-B
Mon 03:26:52 PM 45.6330 -77.6340 211° Southwest 416 479 38,000  Level FlightAware ADS-B
Mon 03:27:32 PM 45.5700 -77.7020 217° Southwest 418 481 38,000  Level FlightAware ADS-B
Mon 03:28:12 PM 45.5060 -77.7680 216° Southwest 417 480 38,000 -494 Level FlightAware ADS-B
Mon 03:28:57 PM 45.4350 -77.8430 217° Southwest 420 483 37,300 -918 Descending FlightAware ADS-B
Mon 03:29:37 PM 45.3730 -77.9080 216° Southwest 417 480 36,700 -1,129 Descending FlightAware ADS-B
Mon 03:30:22 PM 45.3030 -77.9820 217° Southwest 417 480 35,700 -1,553 Descending FlightAware ADS-B
Mon 03:31:02 PM 45.2450 -78.0420 216° Southwest 417 480 34,500 -1,950 Descending FlightAware ADS-B
Mon 03:31:42 PM 45.1790 -78.1110 216° Southwest 423 487 33,100 -2,057 Descending FlightAware ADS-B
Mon 03:32:12 PM 45.1400 -78.1730 228° Southwest 428 493 32,100 -1,629 Descending FlightAware ADS-B
Mon 03:32:52 PM 45.1040 -78.2710 243° Southwest 417 480 31,200 -1,271 Descending FlightAware ADS-B
Mon 03:33:37 PM 45.0630 -78.3790 242° Southwest 414 476 30,300 -1,200 Descending FlightAware ADS-B
Mon 03:34:17 PM 45.0290 -78.4690 242° Southwest 405 466 29,500 -1,200 Descending FlightAware ADS-B
Mon 03:35:02 PM 44.9890 -78.5740 242° Southwest 400 460 28,600 -1,200 Descending FlightAware ADS-B
Mon 03:35:17 PM 44.9700 -78.6060 230° Southwest 402 463 28,300 -1,200 Descending FlightAware ADS-B
Mon 03:35:42 PM 44.9290 -78.6380 209° Southwest 409 471 27,800 -1,200 Descending FlightAware ADS-B
Mon 03:36:27 PM 44.8450 -78.6530 187° South 409 471 26,900 -1,412 Descending FlightAware ADS-B
Mon 03:37:07 PM 44.7690 -78.6650 186° South 402 463 25,800 -1,694 Descending FlightAware ADS-B
Mon 03:37:52 PM 44.6880 -78.6780 187° South 400 460 24,500 -1,765 Descending FlightAware ADS-B
Mon 03:38:32 PM 44.6150 -78.6990 192° South 389 448 23,300 -1,500 Descending FlightAware ADS-B
Mon 03:39:12 PM 44.5590 -78.7560 216° Southwest 374 430 22,500 -1,341 Descending FlightAware ADS-B
Mon 03:39:57 PM 44.4940 -78.8180 214° Southwest 367 422 21,400 -1,482 Descending FlightAware ADS-B
Mon 03:40:37 PM 44.4380 -78.8720 215° Southwest 362 417 20,400 -1,425 Descending FlightAware ADS-B
Mon 03:41:17 PM 44.3860 -78.9220 215° Southwest 356 410 19,500 -1,412 Descending FlightAware ADS-B
Mon 03:42:02 PM 44.3240 -78.9820 215° Southwest 349 402 18,400 -1,482 Descending FlightAware ADS-B
Mon 03:42:42 PM 44.2710 -79.0330 215° Southwest 347 399 17,400 -1,624 Descending FlightAware ADS-B
Mon 03:43:27 PM 44.2120 -79.0910 215° Southwest 348 400 16,100 -1,553 Descending FlightAware ADS-B
Mon 03:44:07 PM 44.1620 -79.1430 217° Southwest 337 388 15,200 -918 Descending FlightAware ADS-B
Mon 03:44:52 PM 44.1080 -79.1990 217° Southwest 310 357 14,800 -706 Descending FlightAware ADS-B
Mon 03:45:32 PM 44.0620 -79.2450 216° Southwest 295 339 14,200 -1,050 Descending FlightAware ADS-B
Mon 03:46:12 PM 44.0180 -79.2900 216° Southwest 290 334 13,400 -1,200 Descending FlightAware ADS-B
Mon 03:46:57 PM 43.9690 -79.3400 216° Southwest 290 334 12,500 -1,200 Descending FlightAware ADS-B
Mon 03:47:37 PM 43.9260 -79.3830 216° Southwest 289 333 11,700 -1,200 Descending FlightAware ADS-B
Mon 03:48:17 PM 43.8830 -79.4270 216° Southwest 287 330 10,900 -1,200 Descending FlightAware ADS-B
Mon 03:48:47 PM 43.8550 -79.4610 221° Southwest 286 329 10,300 -1,200 Descending FlightAware ADS-B
Mon 03:49:17 PM 43.8350 -79.5120 241° Southwest 284 327 9,700 -1,200 Descending FlightAware ADS-B
Mon 03:49:42 PM 43.8200 -79.5500 241° Southwest 282 325 9,200 -1,200 Descending FlightAware ADS-B
Mon 03:50:12 PM 43.8000 -79.5990 241° Southwest 286 329 8,600 -1,200 Descending FlightAware ADS-B
Mon 03:50:37 PM 43.7830 -79.6390 240° Southwest 285 328 8,100 -982 Descending FlightAware ADS-B
Mon 03:51:07 PM 43.7640 -79.6860 241° Southwest 273 314 7,700 -700 Descending FlightAware ADS-B
Mon 03:51:37 PM 43.7450 -79.7280 238° Southwest 256 295 7,400 -655 Descending FlightAware ADS-B
Mon 03:52:02 PM 43.7250 -79.7570 226° Southwest 239 275 7,100 -750 Descending FlightAware ADS-B
Mon 03:52:17 PM 43.7140 -79.7730 226° Southwest 237 273 6,900 -1,067 Descending FlightAware ADS-B
Mon 03:52:47 PM 43.6910 -79.8060 226° Southwest 230 265 6,300 -1,091 Descending FlightAware ADS-B
Mon 03:53:12 PM 43.6730 -79.8320 226° Southwest 222 255 5,900 -900 Descending FlightAware ADS-B
Mon 03:53:27 PM 43.6630 -79.8470 227° Southwest 222 255 5,700 -667 Descending FlightAware ADS-B
Mon 03:53:57 PM 43.6420 -79.8770 226° Southwest 210 242 5,400 -655 Descending FlightAware ADS-B
Mon 03:54:22 PM 43.6260 -79.9010 227° Southwest 203 234 5,100 -873 Descending FlightAware ADS-B
Mon 03:54:52 PM 43.6060 -79.9290 225° Southwest 198 228 4,600 -1,050 Descending FlightAware ADS-B
Mon 03:55:02 PM 43.5980 -79.9350 209° Southwest 196 226 4,400 -1,200 Descending FlightAware ADS-B
Mon 03:55:32 PM 43.5740 -79.9240 162° South 199 229 3,800 -1,000 Descending FlightAware ADS-B
Mon 03:56:02 PM 43.5560 -79.9000 136° Southeast 193 222 3,400 -750 Descending FlightAware ADS-B
Mon 03:56:12 PM 43.5530 -79.8880 109° East 192 221 3,300 -300 Descending FlightAware ADS-B
Mon 03:56:42 PM 43.5580 -79.8520 79° East 177 204 3,200 -300 Descending FlightAware ADS-B
Mon 03:57:12 PM 43.5680 -79.8200 67° East 180 207 3,000 -327 Descending FlightAware ADS-B
Mon 03:57:37 PM 43.5810 -79.7990 49° Northeast 182 209 2,900 -655 Descending FlightAware ADS-B
Mon 03:58:07 PM 43.5990 -79.7730 46° Northeast 176 203 2,400 -1,000 Descending FlightAware ADS-B
Mon 03:58:37 PM 43.6150 -79.7510 45° Northeast 165 190 1,900 -982 Descending FlightAware ADS-B
Mon 03:59:02 PM 43.6270 -79.7330 47° Northeast 147 169 1,500 -900 Descending FlightAware ADS-B
Mon 03:59:17 PM 43.6340 -79.7220 49° Northeast 135 155 1,300 -667 Descending FlightAware ADS-B
Mon 03:59:47 PM 43.6470 -79.7040 45° Northeast 133 153 1,000 -600 Descending FlightAware ADS-B
Mon 03:59:57 PM 43.6510 -79.6980 47° Northeast 134 154 900 -750 Descending FlightAware ADS-B
Mon 04:00:27 PM 43.6640 -79.6790 47° Northeast 134 154 500 -720 Descending FlightAware ADS-B
Mon 04:00:47 PM 43.6710 -79.6680 49° Northeast 136 157 300 -600 Descending FlightAware ADS-B

Login

Don't have an account? Register now (free) for customized features, flight alerts, and more!